Time;durP1;ratioP1;P1;durP2;ratioP2;P2;SDS_P1;SDS_P2;PMS_P1;PMS_P2;Temp;Humidity;BMP_temperature;BMP_pressure;BME280_temperature;BME280_humidity;BME280_pressure;Samples;Min_cycle;Max_cycle;Signal;HPM_P1;HPM_P2
2023/12/20 00:01:16;;;;;;;13.07;7.00;;;6.00;50.00;;;;;;4912121;28;115189;-83
2023/12/20 00:03:44;;;;;;;12.60;6.97;;;6.00;50.00;;;;;;4945125;28;114744;-82
2023/12/20 00:06:11;;;;;;;11.10;5.88;;;6.00;49.00;;;;;;4948551;28;114311;-82
2023/12/20 00:08:39;;;;;;;9.93;5.93;;;6.10;49.60;;;;;;4947584;28;114584;-84
2023/12/20 00:11:06;;;;;;;10.88;6.45;;;6.00;49.70;;;;;;4945682;28;115824;-83
2023/12/20 00:13:36;;;;;;;13.13;6.18;;;6.00;49.70;;;;;;4946671;28;115090;-80
2023/12/20 00:16:06;;;;;;;10.73;5.80;;;6.00;49.60;;;;;;4914821;28;114217;-81
2023/12/20 00:18:34;;;;;;;10.68;6.03;;;6.10;49.60;;;;;;4946827;28;114664;-81
2023/12/20 00:21:01;;;;;;;9.82;5.60;;;6.10;49.50;;;;;;4946163;28;116242;-83
2023/12/20 00:23:29;;;;;;;9.82;5.88;;;6.10;49.60;;;;;;4945120;28;115125;-82
2023/12/20 00:25:56;;;;;;;9.98;6.07;;;6.10;49.70;;;;;;4945675;28;114476;-82
2023/12/20 00:28:23;;;;;;;10.57;6.25;;;6.10;49.60;;;;;;4946018;28;114266;-83
2023/12/20 00:30:51;;;;;;;11.00;6.43;;;6.10;49.60;;;;;;4946228;28;115123;-82
2023/12/20 00:33:18;;;;;;;11.65;6.28;;;6.10;49.60;;;;;;4945045;28;115448;-82
2023/12/20 00:35:46;;;;;;;8.82;6.03;;;6.10;49.20;;;;;;4945957;28;114685;-82
2023/12/20 00:38:14;;;;;;;9.95;5.75;;;6.10;49.30;;;;;;4929835;28;114416;-81
2023/12/20 00:40:41;;;;;;;9.32;5.85;;;6.10;49.40;;;;;;4944924;28;115049;-82
2023/12/20 00:43:09;;;;;;;10.38;5.43;;;6.00;49.40;;;;;;4946186;28;115748;-82
2023/12/20 00:45:36;;;;;;;8.85;5.82;;;6.00;49.10;;;;;;4913412;28;114462;-82
2023/12/20 00:48:04;;;;;;;8.50;5.05;;;6.00;48.80;;;;;;4946754;28;114393;-82
2023/12/20 00:50:34;;;;;;;9.88;5.47;;;6.00;48.60;;;;;;4945002;28;115326;-82
2023/12/20 00:53:01;;;;;;;10.00;6.28;;;5.90;48.80;;;;;;4911742;28;117451;-82
2023/12/20 00:55:29;;;;;;;12.27;6.05;;;5.90;48.90;;;;;;4945596;28;114338;-82
2023/12/20 00:57:56;;;;;;;8.73;6.07;;;5.90;49.00;;;;;;4929384;28;114908;-82
2023/12/20 01:00:24;;;;;;;9.63;6.38;;;5.90;49.10;;;;;;4945505;28;115568;-81
2023/12/20 01:02:51;;;;;;;11.07;6.57;;;5.90;49.20;;;;;;4944617;28;114748;-81
2023/12/20 01:05:19;;;;;;;10.63;7.25;;;5.90;49.20;;;;;;4945571;28;114386;-81
2023/12/20 01:07:46;;;;;;;11.00;6.97;;;5.90;49.10;;;;;;4946900;28;114192;-81
2023/12/20 01:10:14;;;;;;;11.20;6.82;;;5.90;49.20;;;;;;4944508;28;115474;-81
2023/12/20 01:12:43;;;;;;;10.00;7.13;;;5.90;49.40;;;;;;4946001;28;114859;-82
2023/12/20 01:15:10;;;;;;;11.30;7.40;;;5.90;49.60;;;;;;4946400;28;114391;-82
2023/12/20 01:17:37;;;;;;;10.82;7.25;;;5.90;49.40;;;;;;4945544;28;114248;-81
2023/12/20 01:20:07;;;;;;;12.05;7.65;;;5.80;49.50;;;;;;4945929;28;115280;-81
2023/12/20 01:22:35;;;;;;;11.45;7.90;;;5.80;49.50;;;;;;4963525;28;114545;-82
2023/12/20 01:25:03;;;;;;;11.52;7.32;;;5.70;49.70;;;;;;4956917;28;114244;-82
2023/12/20 01:27:31;;;;;;;11.75;7.60;;;5.70;49.90;;;;;;4947231;28;114287;-81
2023/12/20 01:29:58;;;;;;;12.00;7.50;;;5.70;50.00;;;;;;4952724;28;115192;-83
2023/12/20 01:32:25;;;;;;;13.88;8.20;;;5.70;50.20;;;;;;4955523;28;115309;-82
2023/12/20 01:34:53;;;;;;;11.25;7.53;;;5.70;50.30;;;;;;4946947;28;114516;-81
2023/12/20 01:37:23;;;;;;;12.65;7.50;;;5.70;49.90;;;;;;4946892;28;114384;-80
2023/12/20 01:39:51;;;;;;;14.07;7.70;;;5.70;50.20;;;;;;4945276;28;115108;-80
2023/12/20 01:42:19;;;;;;;11.75;7.53;;;5.60;50.50;;;;;;4944397;28;114557;-82
2023/12/20 01:44:47;;;;;;;11.90;7.53;;;5.60;50.30;;;;;;4945582;28;114534;-81
2023/12/20 01:47:15;;;;;;;11.48;7.60;;;5.60;50.40;;;;;;4929794;28;114113;-82
2023/12/20 01:49:42;;;;;;;11.63;7.72;;;5.60;50.50;;;;;;4912178;28;115076;-80
2023/12/20 01:52:10;;;;;;;13.35;8.20;;;5.50;50.80;;;;;;4943791;28;116303;-81
2023/12/20 01:54:39;;;;;;;12.30;8.13;;;5.50;50.80;;;;;;4929473;28;114348;-82
2023/12/20 01:57:07;;;;;;;13.35;8.55;;;5.50;51.00;;;;;;4929413;28;114465;-82
2023/12/20 01:59:37;;;;;;;10.50;7.38;;;5.50;50.50;;;;;;4927712;28;115965;-82
2023/12/20 02:02:04;;;;;;;12.30;7.90;;;5.50;50.50;;;;;;4928201;28;115028;-80
2023/12/20 02:04:31;;;;;;;11.80;7.43;;;5.40;50.60;;;;;;4931637;28;114273;-81
2023/12/20 02:06:59;;;;;;;11.43;8.18;;;5.40;50.80;;;;;;4931802;28;114638;-81
2023/12/20 02:09:27;;;;;;;11.32;7.35;;;5.30;50.80;;;;;;4947146;28;115147;-81
2023/12/20 02:11:54;;;;;;;11.80;7.50;;;5.40;50.90;;;;;;4932010;28;115129;-81
2023/12/20 02:14:21;;;;;;;11.48;7.47;;;5.30;50.90;;;;;;4932156;28;114341;-82
2023/12/20 02:16:49;;;;;;;13.75;8.27;;;5.40;50.90;;;;;;4947749;28;114630;-82
2023/12/20 02:19:16;;;;;;;11.07;7.57;;;5.30;50.80;;;;;;4932211;28;115240;-82
2023/12/20 02:21:43;;;;;;;12.40;7.57;;;5.30;50.80;;;;;;4921203;28;114653;-81
2023/12/20 02:24:11;;;;;;;12.25;7.57;;;5.20;50.80;;;;;;4951697;28;114303;-81
2023/12/20 02:26:38;;;;;;;15.43;8.05;;;5.30;51.00;;;;;;4931824;28;114473;-81
2023/12/20 02:29:05;;;;;;;14.80;8.13;;;5.30;51.10;;;;;;4946543;28;115048;-81
2023/12/20 02:31:33;;;;;;;13.07;7.60;;;5.30;50.80;;;;;;4948221;28;114806;-82
2023/12/20 02:34:00;;;;;;;13.18;8.05;;;5.20;50.80;;;;;;4947708;28;114236;-82
2023/12/20 02:36:28;;;;;;;14.02;8.82;;;5.20;51.00;;;;;;4947644;28;114588;-82
2023/12/20 02:38:55;;;;;;;13.48;8.73;;;5.10;51.20;;;;;;4947849;28;115077;-82
2023/12/20 02:41:22;;;;;;;13.82;8.18;;;5.10;51.10;;;;;;4947427;28;116738;-82
2023/12/20 02:43:49;;;;;;;14.07;8.40;;;5.10;51.30;;;;;;4948980;28;114207;-82
2023/12/20 02:46:17;;;;;;;12.73;9.07;;;5.10;51.40;;;;;;4962708;28;114390;-82
2023/12/20 02:48:44;;;;;;;14.75;8.73;;;5.10;51.50;;;;;;4966013;28;114939;-84
2023/12/20 02:51:12;;;;;;;14.75;8.85;;;5.10;51.30;;;;;;4998945;28;114719;-83
2023/12/20 02:53:39;;;;;;;13.27;8.88;;;5.00;51.30;;;;;;4999252;28;114333;-83
2023/12/20 02:56:06;;;;;;;13.23;8.80;;;5.00;51.50;;;;;;4968078;28;114289;-83
2023/12/20 02:58:34;;;;;;;14.25;8.65;;;5.10;51.50;;;;;;4966979;28;115347;-83
2023/12/20 03:01:01;;;;;;;13.38;9.05;;;5.20;51.60;;;;;;4982268;28;114735;-83
2023/12/20 03:03:29;;;;;;;12.93;8.55;;;5.20;51.70;;;;;;4967718;28;114320;-83
2023/12/20 03:05:56;;;;;;;12.77;8.27;;;5.20;51.70;;;;;;4999751;28;114439;-83
2023/12/20 03:08:23;;;;;;;13.57;8.68;;;5.30;51.70;;;;;;4998454;28;116914;-82
2023/12/20 03:10:54;;;;;;;12.57;9.13;;;5.40;51.60;;;;;;4962235;28;118518;-82
2023/12/20 03:13:21;;;;;;;15.98;9.10;;;5.30;51.40;;;;;;4976379;28;114028;-82
2023/12/20 03:15:50;;;;;;;12.25;7.40;;;5.40;51.40;;;;;;4971804;28;114236;-82
2023/12/20 03:18:18;;;;;;;14.52;8.30;;;5.50;51.40;;;;;;4965298;28;115251;-81
2023/12/20 03:20:49;;;;;;;14.75;8.02;;;5.50;51.30;;;;;;4966850;28;114797;-82
2023/12/20 03:23:18;;;;;;;15.88;8.88;;;5.50;51.20;;;;;;4983093;28;114295;-82
2023/12/20 03:25:45;;;;;;;12.98;7.85;;;5.50;51.20;;;;;;4999349;28;114310;-82
2023/12/20 03:28:15;;;;;;;11.65;7.30;;;5.50;51.10;;;;;;4966770;28;115099;-82
2023/12/20 03:30:43;;;;;;;13.90;8.38;;;5.60;50.90;;;;;;4966961;28;114721;-82
2023/12/20 03:33:10;;;;;;;13.88;8.00;;;5.60;50.20;;;;;;4967477;28;114073;-81
2023/12/20 03:35:41;;;;;;;13.35;8.00;;;5.50;50.00;;;;;;4968130;28;114206;-81
2023/12/20 03:38:08;;;;;;;14.63;8.13;;;5.50;50.40;;;;;;4966690;28;115765;-81
2023/12/20 03:40:36;;;;;;;13.48;7.40;;;5.50;50.70;;;;;;4967259;28;114442;-82
2023/12/20 03:43:04;;;;;;;14.98;8.20;;;5.50;51.20;;;;;;4967295;28;114221;-82
2023/12/20 03:45:31;;;;;;;15.25;8.05;;;5.60;51.10;;;;;;4967685;28;114297;-81
2023/12/20 03:47:58;;;;;;;14.75;8.02;;;5.70;51.20;;;;;;4998455;28;115189;-82
2023/12/20 03:50:26;;;;;;;13.20;8.32;;;5.60;51.30;;;;;;4966641;28;114649;-82
2023/12/20 03:52:55;;;;;;;14.43;8.45;;;5.70;51.60;;;;;;4982866;28;114361;-83
2023/12/20 03:55:23;;;;;;;13.63;8.60;;;5.70;51.90;;;;;;4982053;28;114838;-83
2023/12/20 03:57:50;;;;;;;16.65;9.02;;;5.70;52.00;;;;;;4965452;28;115057;-82
2023/12/20 04:00:20;;;;;;;14.20;9.15;;;5.70;52.30;;;;;;4966823;28;115755;-83
2023/12/20 04:02:47;;;;;;;12.05;8.18;;;5.70;52.60;;;;;;4967200;28;114307;-83
2023/12/20 04:05:15;;;;;;;15.65;8.70;;;5.70;52.90;;;;;;4999315;28;114440;-83
2023/12/20 04:07:42;;;;;;;17.83;9.43;;;5.80;53.50;;;;;;4997029;28;116452;-83
2023/12/20 04:10:10;;;;;;;21.33;10.43;;;5.80;53.60;;;;;;4966553;28;114259;-82
2023/12/20 04:12:40;;;;;;;18.23;10.73;;;5.70;53.90;;;;;;5008482;28;115016;-82
2023/12/20 04:15:09;;;;;;;17.60;10.15;;;5.70;54.50;;;;;;5024829;28;114510;-81
2023/12/20 04:17:37;;;;;;;19.13;9.65;;;5.70;54.80;;;;;;5006321;28;116363;-83
2023/12/20 04:20:05;;;;;;;16.38;9.75;;;5.70;55.10;;;;;;5023797;28;114646;-81
2023/12/20 04:22:36;;;;;;;16.80;10.85;;;5.70;55.50;;;;;;5024942;28;114477;-81
2023/12/20 04:25:06;;;;;;;15.82;9.10;;;5.70;55.80;;;;;;5008712;27;114376;-80
2023/12/20 04:27:36;;;;;;;19.52;10.73;;;5.70;56.10;;;;;;5025232;28;114507;-81
2023/12/20 04:30:04;;;;;;;15.32;10.13;;;5.60;56.40;;;;;;4990659;28;114652;-83
2023/12/20 04:32:32;;;;;;;15.02;9.43;;;5.60;56.60;;;;;;5024169;28;114407;-82
2023/12/20 04:34:59;;;;;;;16.95;11.05;;;5.60;57.00;;;;;;5008478;28;114625;-81
2023/12/20 04:37:26;;;;;;;19.38;10.85;;;5.60;57.20;;;;;;5024314;28;115040;-81
2023/12/20 04:39:56;;;;;;;18.15;11.38;;;5.60;57.50;;;;;;5023887;28;114714;-82
2023/12/20 04:42:24;;;;;;;21.48;11.43;;;5.60;57.70;;;;;;5024674;28;114841;-82
2023/12/20 04:44:52;;;;;;;18.42;10.90;;;5.50;58.00;;;;;;4968133;28;114348;-83
2023/12/20 04:47:20;;;;;;;14.65;9.45;;;5.40;58.40;;;;;;4965708;28;115047;-83
2023/12/20 04:49:47;;;;;;;15.20;10.20;;;5.30;58.80;;;;;;4997380;28;116645;-82
2023/12/20 04:52:14;;;;;;;17.48;9.85;;;5.20;59.10;;;;;;4965302;28;114292;-82
2023/12/20 04:54:42;;;;;;;14.13;9.43;;;5.20;59.30;;;;;;4971608;28;114246;-81
2023/12/20 04:57:11;;;;;;;17.50;10.60;;;5.20;59.50;;;;;;4940378;28;118365;-82
2023/12/20 04:59:41;;;;;;;15.82;10.30;;;5.30;59.70;;;;;;4992060;28;114652;-81
2023/12/20 05:02:08;;;;;;;18.58;11.55;;;5.30;59.80;;;;;;4979932;28;114080;-81
2023/12/20 05:04:36;;;;;;;16.20;10.60;;;5.30;59.90;;;;;;4948656;28;114151;-80
2023/12/20 05:07:04;;;;;;;19.92;11.82;;;5.30;60.00;;;;;;4945885;28;115651;-81
2023/12/20 05:09:33;;;;;;;21.05;11.93;;;5.30;60.20;;;;;;4929631;28;114678;-81
2023/12/20 05:12:00;;;;;;;19.08;11.20;;;5.20;60.20;;;;;;4947187;28;114241;-81
2023/12/20 05:14:27;;;;;;;20.70;11.82;;;5.20;60.40;;;;;;4979280;28;114570;-81
2023/12/20 05:16:56;;;;;;;20.60;12.48;;;5.20;60.60;;;;;;4929324;28;116667;-82
2023/12/20 05:19:24;;;;;;;20.80;12.10;;;5.20;60.80;;;;;;4929417;28;114622;-82
2023/12/20 05:21:52;;;;;;;20.27;12.57;;;5.20;61.00;;;;;;4945627;28;114284;-82
2023/12/20 05:24:19;;;;;;;22.88;13.43;;;5.30;61.20;;;;;;4947438;28;114633;-81
2023/12/20 05:26:46;;;;;;;22.25;14.88;;;5.20;61.50;;;;;;4944984;28;115097;-81
2023/12/20 05:29:17;;;;;;;22.10;13.77;;;5.30;61.60;;;;;;4945407;28;115764;-81
2023/12/20 05:31:44;;;;;;;26.38;15.00;;;5.20;61.80;;;;;;4947150;28;114354;-82
2023/12/20 05:34:12;;;;;;;25.02;14.43;;;5.30;62.00;;;;;;4947324;28;114192;-82
2023/12/20 05:36:39;;;;;;;24.92;14.13;;;5.30;62.00;;;;;;4978439;28;115392;-82
2023/12/20 05:39:07;;;;;;;25.48;15.30;;;5.30;62.20;;;;;;4948031;28;116408;-82
2023/12/20 05:41:35;;;;;;;25.08;13.18;;;5.30;62.30;;;;;;4949258;28;114120;-82
2023/12/20 05:44:02;;;;;;;21.42;13.57;;;5.30;62.50;;;;;;4950419;28;114488;-83
2023/12/20 05:46:29;;;;;;;25.58;15.27;;;5.30;62.80;;;;;;4915447;28;115425;-83
2023/12/20 05:48:56;;;;;;;24.05;14.15;;;5.20;62.90;;;;;;4949349;28;114617;-82
2023/12/20 05:51:24;;;;;;;25.30;15.07;;;5.20;63.20;;;;;;4949948;28;114614;-82
2023/12/20 05:53:51;;;;;;;25.92;15.18;;;5.20;63.30;;;;;;4932835;28;114669;-82
2023/12/20 05:56:18;;;;;;;28.42;16.50;;;5.20;63.50;;;;;;4932057;28;115023;-82
2023/12/20 05:58:46;;;;;;;41.53;19.98;;;5.20;63.70;;;;;;4949211;28;114805;-83
2023/12/20 06:01:16;;;;;;;40.55;20.95;;;5.20;63.90;;;;;;4949288;28;114284;-82
2023/12/20 06:03:45;;;;;;;45.78;22.83;;;5.20;64.20;;;;;;4949654;28;114657;-82
2023/12/20 06:06:13;;;;;;;49.30;24.30;;;5.10;64.30;;;;;;4910360;28;115352;-82
2023/12/20 06:08:43;;;;;;;37.90;19.27;;;5.10;64.40;;;;;;4947147;28;115115;-82
2023/12/20 06:11:11;;;;;;;30.98;16.48;;;5.00;64.70;;;;;;4963272;28;114765;-82
2023/12/20 06:13:38;;;;;;;28.70;14.52;;;5.00;64.90;;;;;;4959610;28;114954;-83
2023/12/20 06:16:07;;;;;;;23.73;14.02;;;4.90;65.10;;;;;;4965686;28;119649;-83
2023/12/20 06:18:37;;;;;;;22.10;12.85;;;4.90;65.30;;;;;;4975531;28;116517;-83
2023/12/20 06:21:07;;;;;;;20.30;10.38;;;4.90;65.50;;;;;;4927620;28;114642;-84
2023/12/20 06:23:34;;;;;;;16.77;9.50;;;4.90;65.60;;;;;;4955482;28;114435;-83
2023/12/20 06:26:01;;;;;;;13.45;8.63;;;4.90;65.70;;;;;;4949078;27;116364;-84
2023/12/20 06:28:29;;;;;;;15.75;9.52;;;4.90;65.70;;;;;;4914988;28;118017;-83
2023/12/20 06:31:02;;;;;;;20.58;11.05;;;4.90;65.70;;;;;;4961025;28;114829;-82
2023/12/20 06:33:31;;;;;;;13.75;8.48;;;4.80;65.80;;;;;;4946216;28;114322;-82
2023/12/20 06:36:01;;;;;;;14.90;8.80;;;4.70;65.90;;;;;;4937267;28;116316;-82
2023/12/20 06:38:31;;;;;;;12.50;8.13;;;4.80;65.90;;;;;;4958198;28;114366;-82
2023/12/20 06:40:59;;;;;;;11.57;8.07;;;4.70;65.90;;;;;;4970064;27;114889;-84
2023/12/20 06:43:27;;;;;;;13.00;7.55;;;4.70;66.10;;;;;;4968064;28;114991;-84
2023/12/20 06:46:13;;;;;;;11.05;7.30;;;4.70;66.20;;;;;;4951809;28;115118;-83
2023/12/20 06:48:43;;;;;;;11.07;7.13;;;4.70;66.30;;;;;;4918765;28;118004;-82
2023/12/20 06:51:19;;;;;;;11.23;7.35;;;4.70;66.40;;;;;;4966962;28;114251;-84
2023/12/20 06:53:46;;;;;;;11.07;6.95;;;4.70;66.90;;;;;;4970064;28;114744;-84
2023/12/20 06:56:14;;;;;;;11.02;7.18;;;4.70;66.60;;;;;;4967737;28;116986;-83
2023/12/20 06:58:48;;;;;;;11.00;7.43;;;4.70;66.80;;;;;;4969167;28;114818;-83
2023/12/20 07:01:15;;;;;;;12.23;7.05;;;4.80;66.80;;;;;;4936143;28;114673;-83
2023/12/20 07:03:43;;;;;;;11.95;7.80;;;4.80;66.90;;;;;;4949073;28;114944;-81
2023/12/20 07:06:11;;;;;;;11.20;7.65;;;4.80;66.90;;;;;;4948072;28;115177;-84
2023/12/20 07:08:39;;;;;;;15.25;8.15;;;4.80;67.00;;;;;;4946093;28;114598;-83
2023/12/20 07:11:06;;;;;;;11.98;7.35;;;4.80;67.10;;;;;;4946607;28;114713;-83
2023/12/20 07:13:34;;;;;;;13.68;7.55;;;4.80;67.20;;;;;;4948572;28;116381;-84
2023/12/20 07:16:01;;;;;;;13.52;7.85;;;4.80;67.30;;;;;;4948361;28;115755;-84
2023/12/20 07:18:29;;;;;;;13.90;7.85;;;4.80;67.40;;;;;;4930726;28;114700;-84
2023/12/20 07:20:56;;;;;;;11.25;7.25;;;4.90;67.50;;;;;;4947635;28;114430;-83
2023/12/20 07:23:23;;;;;;;11.07;6.13;;;4.90;67.60;;;;;;4931357;28;114607;-84
2023/12/20 07:25:50;;;;;;;11.18;7.28;;;4.90;67.60;;;;;;4945626;28;115502;-82
2023/12/20 07:28:18;;;;;;;10.27;7.07;;;4.90;67.70;;;;;;4946215;28;114581;-83
2023/12/20 07:30:45;;;;;;;9.75;6.97;;;4.90;67.80;;;;;;4948282;28;114913;-84
2023/12/20 07:33:12;;;;;;;10.80;6.95;;;4.90;67.80;;;;;;4930967;28;114660;-84
2023/12/20 07:35:41;;;;;;;12.93;6.70;;;5.00;67.80;;;;;;4930845;28;115683;-84
2023/12/20 07:38:12;;;;;;;12.13;6.90;;;5.00;68.00;;;;;;4948932;28;115091;-84
2023/12/20 07:40:39;;;;;;;10.18;6.63;;;5.00;68.00;;;;;;4949257;28;114524;-84
2023/12/20 07:43:06;;;;;;;10.75;6.38;;;5.00;67.90;;;;;;4949170;28;114398;-84
2023/12/20 07:45:34;;;;;;;9.75;6.45;;;5.00;67.90;;;;;;4947758;28;115083;-85
2023/12/20 07:48:03;;;;;;;9.93;6.25;;;5.00;68.00;;;;;;4946285;28;118768;-84
2023/12/20 07:50:30;;;;;;;11.10;6.40;;;5.00;68.10;;;;;;4947981;28;114524;-84
2023/12/20 07:52:59;;;;;;;9.07;6.18;;;5.10;68.00;;;;;;4948396;28;114190;-84
2023/12/20 07:55:27;;;;;;;14.43;7.95;;;5.00;68.10;;;;;;4947382;28;115507;-84
2023/12/20 07:57:55;;;;;;;8.95;6.22;;;5.00;68.10;;;;;;4946021;28;114928;-84
2023/12/20 08:00:25;;;;;;;11.13;6.22;;;5.10;68.10;;;;;;4946508;28;114615;-84
2023/12/20 08:02:52;;;;;;;10.45;6.97;;;5.10;68.10;;;;;;4931226;28;114520;-85
2023/12/20 08:05:19;;;;;;;11.98;6.82;;;5.10;68.10;;;;;;4929609;28;115119;-84
2023/12/20 08:07:46;;;;;;;10.95;6.78;;;5.10;68.20;;;;;;4946925;28;114590;-84
2023/12/20 08:10:14;;;;;;;9.30;5.95;;;5.20;68.30;;;;;;4946630;28;114378;-85
2023/12/20 08:12:42;;;;;;;9.30;6.05;;;5.10;68.20;;;;;;4948026;28;114435;-85
2023/12/20 08:15:10;;;;;;;11.23;6.53;;;5.10;68.20;;;;;;4946509;28;115321;-85
2023/12/20 08:17:37;;;;;;;10.15;6.00;;;5.00;68.40;;;;;;4959838;28;114826;-84
2023/12/20 08:20:07;;;;;;;10.35;6.80;;;5.10;68.30;;;;;;4953927;28;114394;-84
2023/12/20 08:22:34;;;;;;;10.63;6.95;;;5.00;68.40;;;;;;4948121;28;114488;-85
2023/12/20 08:25:01;;;;;;;9.95;6.20;;;5.10;68.50;;;;;;4946990;28;115134;-85
2023/12/20 08:27:31;;;;;;;11.07;6.90;;;5.10;68.50;;;;;;4945777;28;114717;-85
2023/12/20 08:30:00;;;;;;;11.02;6.22;;;5.10;68.50;;;;;;4946649;28;114284;-85
2023/12/20 08:32:28;;;;;;;12.60;6.32;;;5.10;68.50;;;;;;4946252;28;114548;-85
2023/12/20 08:34:58;;;;;;;11.20;5.93;;;5.10;68.40;;;;;;4946368;28;115225;-85
2023/12/20 08:37:43;;;;;;;10.88;6.85;;;5.00;68.50;;;;;;4945138;28;117675;-85
2023/12/20 08:40:11;;;;;;;9.60;6.50;;;5.10;68.60;;;;;;4947067;28;114259;-85
2023/12/20 08:42:41;;;;;;;10.15;6.45;;;5.10;68.70;;;;;;4946474;28;114303;-84
2023/12/20 08:45:12;;;;;;;10.10;6.80;;;5.10;68.80;;;;;;4929340;28;117916;-84
2023/12/20 08:47:41;;;;;;;10.52;7.00;;;5.10;68.60;;;;;;4947707;28;116434;-83
2023/12/20 08:50:08;;;;;;;11.65;7.18;;;5.10;68.60;;;;;;4941772;28;114635;-83
2023/12/20 08:52:36;;;;;;;10.00;6.38;;;5.10;68.70;;;;;;4931850;28;114624;-83
2023/12/20 08:55:04;;;;;;;9.65;6.22;;;5.10;68.70;;;;;;4946475;28;115724;-82
2023/12/20 08:57:32;;;;;;;11.52;6.95;;;5.10;68.80;;;;;;4947599;28;115750;-83
2023/12/20 08:59:59;;;;;;;10.52;6.32;;;5.10;68.80;;;;;;4949072;28;114230;-83
2023/12/20 09:02:39;;;;;;;11.32;6.85;;;5.20;68.90;;;;;;4946267;28;114549;-83
2023/12/20 09:05:15;;;;;;;9.50;5.68;;;5.20;68.90;;;;;;4932265;28;118814;-84
2023/12/20 09:07:43;;;;;;;9.18;5.60;;;5.20;68.80;;;;;;4941795;28;117569;-82
2023/12/20 09:10:10;;;;;;;8.95;5.60;;;5.10;68.80;;;;;;4951983;28;114450;-83
2023/12/20 09:12:40;;;;;;;8.10;5.72;;;5.10;68.80;;;;;;4953056;28;114505;-83
2023/12/20 09:15:08;;;;;;;9.82;5.93;;;5.20;68.80;;;;;;4957505;28;115049;-83
2023/12/20 09:17:35;;;;;;;8.27;5.57;;;5.10;68.90;;;;;;4929205;28;115492;-84
2023/12/20 09:20:06;;;;;;;8.27;5.53;;;5.20;68.90;;;;;;4942258;28;114567;-83
2023/12/20 09:22:34;;;;;;;8.30;5.70;;;5.20;69.00;;;;;;4949462;28;114520;-84
2023/12/20 09:25:02;;;;;;;9.07;5.63;;;5.10;69.00;;;;;;4948303;28;115109;-83
2023/12/20 09:27:30;;;;;;;9.02;5.75;;;5.20;69.00;;;;;;4898903;28;115913;-82
2023/12/20 09:29:58;;;;;;;8.18;5.85;;;5.20;69.00;;;;;;4961199;28;114523;-83
2023/12/20 09:32:25;;;;;;;8.63;5.55;;;5.10;69.00;;;;;;4934121;28;114623;-84
2023/12/20 09:34:54;;;;;;;9.77;5.90;;;5.10;69.10;;;;;;4937227;28;115086;-83
2023/12/20 09:37:21;;;;;;;7.90;5.10;;;5.10;69.30;;;;;;4947515;28;117149;-82
2023/12/20 09:39:49;;;;;;;9.43;6.05;;;5.10;69.20;;;;;;4932932;28;114752;-83
2023/12/20 09:42:21;;;;;;;8.68;6.25;;;5.10;69.20;;;;;;4951038;28;114447;-82
2023/12/20 09:44:49;;;;;;;8.70;5.18;;;5.10;69.30;;;;;;4957491;28;115096;-83
2023/12/20 09:47:17;;;;;;;8.38;5.55;;;5.10;69.40;;;;;;4971045;28;117465;-84
2023/12/20 09:49:44;;;;;;;8.85;5.95;;;5.00;69.40;;;;;;4912845;28;114428;-83
2023/12/20 09:52:14;;;;;;;9.57;5.57;;;5.00;69.40;;;;;;4944690;28;114697;-84
2023/12/20 09:54:42;;;;;;;9.02;5.68;;;5.10;69.50;;;;;;4912986;28;117111;-84
2023/12/20 09:57:13;;;;;;;8.02;5.03;;;5.00;69.50;;;;;;4925860;28;118129;-84
2023/12/20 09:59:41;;;;;;;8.20;5.72;;;5.00;69.50;;;;;;4943487;28;114573;-83
2023/12/20 10:02:12;;;;;;;7.93;5.15;;;5.00;69.60;;;;;;4953851;28;114658;-84
2023/12/20 10:04:43;;;;;;;8.07;5.05;;;5.10;69.70;;;;;;4957776;28;114470;-83
2023/12/20 10:07:13;;;;;;;9.15;6.45;;;5.00;69.60;;;;;;4898273;28;1440498;-83
2023/12/20 10:09:44;;;;;;;8.07;5.22;;;5.00;69.70;;;;;;4960313;28;114562;-82
2023/12/20 10:12:11;;;;;;;8.48;5.32;;;5.00;69.70;;;;;;4923540;28;114477;-82
2023/12/20 10:14:39;;;;;;;8.07;5.43;;;5.00;69.60;;;;;;4950197;28;115032;-83
2023/12/20 10:17:08;;;;;;;8.02;5.45;;;5.00;69.70;;;;;;4953773;28;115172;-83
2023/12/20 10:19:37;;;;;;;7.68;4.63;;;5.00;69.60;;;;;;4941578;28;115117;-83
2023/12/20 10:22:04;;;;;;;9.15;5.25;;;5.00;69.60;;;;;;4925868;28;114608;-83
2023/12/20 10:24:32;;;;;;;7.50;4.97;;;5.00;69.70;;;;;;4952925;28;115815;-82
2023/12/20 10:27:07;;;;;;;9.02;4.60;;;5.00;69.70;;;;;;4949303;28;114657;-82
2023/12/20 10:29:38;;;;;;;7.13;4.28;;;5.00;69.80;;;;;;4912006;28;117391;-82
2023/12/20 10:32:23;;;;;;;6.72;4.43;;;5.00;69.80;;;;;;4966480;28;114401;-82
2023/12/20 10:34:52;;;;;;;7.22;4.35;;;5.10;69.80;;;;;;4959156;28;115380;-82
2023/12/20 10:37:20;;;;;;;6.07;4.03;;;5.00;69.70;;;;;;4925216;28;114853;-82
2023/12/20 10:39:56;;;;;;;6.95;3.95;;;5.00;69.60;;;;;;4931555;28;114869;-82
2023/12/20 10:42:27;;;;;;;5.75;3.38;;;5.00;69.80;;;;;;4925903;28;114561;-83
2023/12/20 10:44:54;;;;;;;5.95;3.67;;;4.90;69.80;;;;;;4953886;28;115172;-84
2023/12/20 10:47:24;;;;;;;6.47;3.58;;;5.00;69.70;;;;;;4969794;28;114437;-83
2023/12/20 10:49:52;;;;;;;6.20;3.65;;;4.90;69.80;;;;;;4950988;28;114511;-84
2023/12/20 10:52:22;;;;;;;7.32;4.00;;;4.90;69.90;;;;;;4964704;28;114454;-84
2023/12/20 10:54:50;;;;;;;6.53;4.03;;;4.90;69.90;;;;;;4916769;28;115640;-85
2023/12/20 10:57:19;;;;;;;7.82;4.10;;;4.90;70.00;;;;;;4948317;28;115104;-84
2023/12/20 10:59:47;;;;;;;6.97;3.83;;;4.90;70.10;;;;;;4900026;28;114912;-84
2023/12/20 11:02:24;;;;;;;;;;;4.90;70.10;;;;;;4950244;28;114860;-85
2023/12/20 11:05:30;;;;;;;5.03;3.22;;;4.90;69.60;;;;;;4964756;28;117464;-84
2023/12/20 11:08:22;;;;;;;6.25;3.33;;;4.80;70.00;;;;;;4952065;28;115724;-82
2023/12/20 11:11:07;;;;;;;6.53;3.50;;;4.80;70.10;;;;;;4962387;28;114755;-81
2023/12/20 11:14:05;;;;;;;7.05;3.97;;;4.90;70.20;;;;;;4963906;28;114893;-83
2023/12/20 11:16:38;;;;;;;9.00;4.88;;;4.90;70.00;;;;;;4945258;28;117958;-84
2023/12/20 11:19:18;;;;;;;5.68;2.97;;;4.90;70.10;;;;;;4926412;28;116410;-83
2023/12/20 11:21:46;;;;;;;5.07;3.03;;;4.90;69.90;;;;;;4926583;28;114754;-82
2023/12/20 11:24:17;;;;;;;5.88;3.30;;;4.80;70.00;;;;;;4955487;28;114833;-83
2023/12/20 11:26:51;;;;;;;6.10;3.63;;;4.90;70.10;;;;;;4919800;28;118282;-82
2023/12/20 11:29:35;;;;;;;6.95;3.63;;;4.80;69.90;;;;;;4927896;28;114733;-82
2023/12/20 11:32:24;;;;;;;5.75;3.40;;;4.90;70.10;;;;;;4960662;28;114609;-82
2023/12/20 11:35:10;;;;;;;7.90;3.60;;;4.90;70.00;;;;;;4951967;28;114471;-82
2023/12/20 11:37:42;;;;;;;6.13;3.42;;;4.90;69.90;;;;;;4940895;28;115208;-82
2023/12/20 11:40:18;;;;;;;6.57;3.65;;;4.90;69.80;;;;;;4950467;28;118532;-84
2023/12/20 11:42:50;;;;;;;6.50;3.72;;;4.90;69.90;;;;;;4991613;28;114797;-83
2023/12/20 11:45:22;;;;;;;5.82;3.47;;;4.90;70.00;;;;;;4934651;28;114605;-81
2023/12/20 11:47:51;;;;;;;6.85;3.45;;;4.90;69.90;;;;;;4913021;28;115753;-83
2023/12/20 11:50:22;;;;;;;6.10;3.60;;;4.90;69.90;;;;;;4925282;28;114675;-81
2023/12/20 11:52:53;;;;;;;4.63;3.00;;;4.90;70.00;;;;;;4951071;28;114430;-82
2023/12/20 11:55:22;;;;;;;5.95;2.78;;;5.00;69.90;;;;;;4928758;28;114877;-82
2023/12/20 11:57:53;;;;;;;4.93;3.05;;;5.00;69.80;;;;;;4945730;28;115187;-82
2023/12/20 12:00:21;;;;;;;5.15;3.33;;;5.10;69.90;;;;;;4913583;28;115777;-81
2023/12/20 12:02:57;;;;;;;5.72;3.47;;;5.00;69.80;;;;;;4927490;28;114547;-82
2023/12/20 12:05:26;;;;;;;6.60;3.60;;;5.10;70.00;;;;;;4948913;28;114650;-83
2023/12/20 12:07:53;;;;;;;6.85;3.95;;;5.00;69.90;;;;;;4943850;28;118441;-82
2023/12/20 12:10:24;;;;;;;6.15;3.50;;;5.10;69.90;;;;;;4965382;28;114706;-83
2023/12/20 12:12:51;;;;;;;5.68;3.47;;;5.10;69.70;;;;;;4969258;28;114860;-83
2023/12/20 12:15:22;;;;;;;6.82;4.15;;;5.00;69.80;;;;;;4964382;28;114579;-83
2023/12/20 12:17:56;;;;;;;7.47;4.45;;;5.10;69.80;;;;;;4945608;28;115254;-82
2023/12/20 12:20:24;;;;;;;5.80;3.80;;;5.10;69.90;;;;;;4934001;28;115709;-82
2023/12/20 12:23:01;;;;;;;6.35;4.05;;;5.10;69.80;;;;;;4944620;28;114583;-81
2023/12/20 12:25:37;;;;;;;6.78;3.70;;;5.10;69.90;;;;;;4975365;28;114636;-86
2023/12/20 12:28:10;;;;;;;6.72;4.47;;;5.20;69.80;;;;;;4950662;28;115022;-83
2023/12/20 12:30:38;;;;;;;8.60;4.80;;;5.20;69.70;;;;;;4949258;28;114867;-82
2023/12/20 12:33:17;;;;;;;6.95;4.45;;;5.20;69.70;;;;;;4951692;28;114958;-83
2023/12/20 12:35:44;;;;;;;8.07;4.38;;;5.20;69.60;;;;;;4926554;28;114602;-81
2023/12/20 12:38:13;;;;;;;7.82;4.40;;;5.20;69.60;;;;;;4954952;28;115504;-82
2023/12/20 12:40:40;;;;;;;9.00;4.10;;;5.20;69.60;;;;;;4957907;28;114640;-82
2023/12/20 12:43:07;;;;;;;6.60;4.53;;;5.20;69.50;;;;;;4928667;28;114947;-82
2023/12/20 12:45:36;;;;;;;6.30;4.10;;;5.20;69.50;;;;;;4947365;28;116689;-83
2023/12/20 12:48:03;;;;;;;7.28;4.22;;;5.20;69.50;;;;;;4942756;28;115369;-82